Highmount, NY (12441)

11:58 PM EST on March 03, 2015 (GMT -0500)
Downtown Pine Hill | Change Station
CLOSE
Current Station
Personal Weather Station
Location: Pine Hill, NY
Elevation: 1680 ft
Nearby Weather Stations
Active Advisory: Winter Weather Advisory Active Notice: Public Information Statement

Elev 1680 ft 42.13 °N, 74.48 °W | Updated 12 minutes ago

Overcast
Overcast
30.1 °F
Feels Like 30 °F
N
2.0
Wind Variable Wind from West
Gusts 7.0 mph

Today
High -- | Low -- °F
--% Chance of Precip.
Yesterday
High -- | Low -- °F
Precip. -- in
6:30 AM 5:50 PM
Waxing Gibbous, 98% visible
Pressure 29.74 in
Visibility 8.0 miles
Clouds Overcast 600 ft
Windchill 30 °F
Dew Point 26 °F
Humidity 83%
Rainfall -999.00 in
Snow Depth Not available.
UV 0 out of 12
Pollen .40 out of 12
Air Quality Not available.
Flu Activity Not available.
METAR KMSV 040455Z AUTO 00000KT 8SM OVC006 M05/M05 A2974 RMK AO1

More Conditions Fewer Conditions

Pressure 29.74 in
Visibility 8.0 miles
Clouds Overcast 600 ft
Windchill 30 °F
Dew Point 26 °F
Humidity 83%
Rainfall -999.00 in
Snow Depth Not available.
UV 0 out of 12
Pollen .40 out of 12
Air Quality Not available.
Flu Activity Not available.
METAR KMSV 040455Z AUTO 00000KT 8SM OVC006 M05/M05 A2974 RMK AO1

More Conditions Fewer Conditions

10-Day Weather Forecast

Almanac

Astronomy

Mar. 03, 2015 Rise Set
Actual Time
Civil Twilight
Nautical Twilight
Astronomical Twilight
Moon
Length of Visible Light
Length of Day
Tomorrow will be .
, % of the Moon is Illuminated

Today's Extremes

State Highs State Lows

Community

WunderPhotos

Upload Photos

1,802,385 photos uploaded!

WunderBlogs® & News

Nearby

Air Quality

  Air Quality AQ Index Pollutant
Not available.

Snow Depth

Station Depth Elevation

Earthquake Activity

City Distance Mag. Time & Date
Minimum magnitude displayed is 2.5.

Coastal Water Temperatures

Place Temperature

Nearby Weather Stations

Winter Weather Advisory
Statement as of 9:53 PM EST on March 03, 2015

... Winter Weather Advisory remains in effect until 6 am EST
Wednesday...

* locations... eastern New York and adjacent western New England.

* Hazard types... snow... sleet and freezing rain.

* Accumulations... total snow accumulation of 1 to 3 inches...
along with up to a tenth of an inch of ice.

* Timing... mixed snow... sleet and freezing rain will become spotty
after midnight... then completely taper off late tonight.

* Impacts... hazardous travel conditions due to snow and ice
covered roads.

* Winds... south 10 to 20 mph with gusts up to 35 mph.

* Temperatures... in the 20s... rising to between 30 and 35 by
around sunrise.

Precautionary/preparedness actions...

A Winter Weather Advisory means that periods of snow... sleet... or
freezing rain will cause travel difficulties. Be prepared for
slippery roads and limited visibilities... and use caution while
driving.